Time;durP1;ratioP1;P1;durP2;ratioP2;P2;SDS_P1;SDS_P2;PMS_P1;PMS_P2;Temp;Humidity;BMP_temperature;BMP_pressure;BME280_temperature;BME280_humidity;BME280_pressure;Samples;Min_cycle;Max_cycle;Signal;HPM_P1;HPM_P2
2022/01/20 00:01:56;;;;;;;2.27;1.00;;;;;;;;;;5032809;28;20502;-91
2022/01/20 00:04:28;;;;;;;2.80;1.97;;;;;;;;;;5033797;28;20567;-89
2022/01/20 00:26:53;;;;;;;3.70;1.90;;;2.60;99.90;;;;;;5032025;28;20566;-87
2022/01/20 00:29:28;;;;;;;2.97;1.77;;;;;;;;;;5028253;28;20463;-86
2022/01/20 00:32:08;;;;;;;2.00;1.77;;;;;;;;;;5034190;28;20447;-90
2022/01/20 00:37:30;;;;;;;0.73;0.73;;;2.50;99.90;;;;;;5014934;28;20459;-87
2022/01/20 00:39:58;;;;;;;2.37;2.10;;;2.50;99.90;;;;;;5029700;28;20456;-89
2022/01/20 00:42:27;;;;;;;2.90;2.20;;;;;;;;;;5035901;28;20444;-89
2022/01/20 00:44:54;;;;;;;3.53;2.30;;;;;;;;;;5034478;28;20444;-88
2022/01/20 00:47:22;;;;;;;2.47;1.80;;;;;;;;;;5035239;28;20475;-86
2022/01/20 00:49:49;;;;;;;4.07;1.77;;;;;;;;;;5032477;28;20456;-88
2022/01/20 00:52:16;;;;;;;2.80;1.40;;;;;;;;;;5035247;28;20466;-86
2022/01/20 00:54:43;;;;;;;3.67;2.10;;;;;;;;;;5035247;28;20455;-88
2022/01/20 00:57:11;;;;;;;3.40;2.50;;;;;;;;;;5034730;28;20494;-86
2022/01/20 00:59:40;;;;;;;2.40;2.00;;;2.50;99.90;;;;;;5034033;28;20462;-86
2022/01/20 01:02:08;;;;;;;1.53;1.33;;;2.50;99.90;;;;;;5035458;28;20480;-88
2022/01/20 01:04:35;;;;;;;2.70;1.20;;;;;;;;;;5032724;28;20487;-89
2022/01/20 01:07:25;;;;;;;2.87;2.10;;;2.50;99.90;;;;;;5035418;28;20459;-88
2022/01/20 01:09:52;;;;;;;2.00;0.87;;;;;;;;;;5032404;28;20487;-88
2022/01/20 01:12:29;;;;;;;0.90;0.87;;;;;;;;;;5035311;28;20960;-89
2022/01/20 01:14:58;;;;;;;2.97;2.47;;;2.30;99.90;;;;;;5034254;28;20459;-87
2022/01/20 01:22:52;;;;;;;1.50;1.20;;;;;;;;;;5032868;28;20440;-91
2022/01/20 01:25:20;;;;;;;1.50;1.00;;;;;;;;;;5035310;28;20448;-87
2022/01/20 01:27:47;;;;;;;1.40;1.30;;;;;;;;;;5034961;28;20451;-88
2022/01/20 01:30:41;;;;;;;2.03;1.20;;;;;;;;;;5033627;28;20444;-92
2022/01/20 01:33:12;;;;;;;1.13;0.87;;;;;;;;;;5035063;28;20436;-88
2022/01/20 01:35:41;;;;;;;1.27;0.90;;;;;;;;;;5034906;28;20542;-88
2022/01/20 01:38:35;;;;;;;1.67;1.10;;;;;;;;;;5034919;28;20443;-90
2022/01/20 01:41:04;;;;;;;0.53;0.53;;;;;;;;;;5033980;28;21086;-87
2022/01/20 01:43:32;;;;;;;2.20;1.17;;;;;;;;;;5034704;28;20951;-90
2022/01/20 01:46:01;;;;;;;2.23;1.70;;;2.00;99.90;;;;;;5033798;28;21009;-89
2022/01/20 01:48:28;;;;;;;6.33;1.60;;;;;;;;;;5034276;28;20483;-87
2022/01/20 01:50:55;;;;;;;2.37;1.53;;;;;;;;;;5034680;28;20452;-87
2022/01/20 01:53:23;;;;;;;3.80;1.70;;;;;;;;;;5034541;28;20945;-87
2022/01/20 01:55:50;;;;;;;1.20;0.90;;;;;;;;;;5034569;28;21066;-89
2022/01/20 01:58:17;;;;;;;0.87;0.83;;;;;;;;;;5031329;28;20866;-88
2022/01/20 02:00:44;;;;;;;3.10;2.20;;;;;;;;;;5033106;28;20484;-89
2022/01/20 02:03:14;;;;;;;0.60;0.40;;;1.80;99.90;;;;;;5033974;28;21018;-87
2022/01/20 02:05:56;;;;;;;3.97;2.03;;;1.80;99.90;;;;;;5034192;28;20814;-87
2022/01/20 02:08:43;;;;;;;1.30;0.80;;;1.90;99.90;;;;;;5034206;28;20816;-88
2022/01/20 02:19:27;;;;;;;0.80;0.60;;;1.90;99.90;;;;;;5034179;28;21028;-89
2022/01/20 02:22:01;;;;;;;1.93;1.43;;;2.10;99.90;;;;;;5033948;28;20498;-87
2022/01/20 02:24:28;;;;;;;3.20;2.17;;;;;;;;;;5033790;28;20447;-89
2022/01/20 02:26:55;;;;;;;2.03;1.30;;;;;;;;;;5032097;28;20443;-87
2022/01/20 02:29:23;;;;;;;3.53;1.87;;;;;;;;;;5029767;28;20452;-88
2022/01/20 02:31:54;;;;;;;1.17;0.93;;;2.00;99.90;;;;;;5033632;28;20487;-89
2022/01/20 02:34:22;;;;;;;4.17;1.87;;;;;;;;;;5029992;28;20955;-89
2022/01/20 02:36:49;;;;;;;1.33;1.13;;;;;;;;;;5033723;28;20462;-88
2022/01/20 02:39:43;;;;;;;0.80;0.60;;;;;;;;;;5033522;28;20460;-89
2022/01/20 02:45:02;;;;;;;1.87;1.70;;;;;;;;;;5032723;28;20473;-88
2022/01/20 02:47:34;;;;;;;1.67;1.37;;;2.10;99.90;;;;;;5033154;28;20814;-88
2022/01/20 02:50:01;;;;;;;1.43;1.27;;;2.10;99.90;;;;;;5030446;28;20447;-89
2022/01/20 02:52:29;;;;;;;0.80;0.57;;;;;;;;;;5032527;28;20502;-91
2022/01/20 02:54:57;;;;;;;1.70;1.60;;;2.20;99.90;;;;;;5033473;28;20462;-88
2022/01/20 02:57:24;;;;;;;1.13;1.03;;;;;;;;;;5033251;28;20454;-89
2022/01/20 02:59:51;;;;;;;0.97;0.70;;;;;;;;;;5032179;28;20443;-89
2022/01/20 03:02:19;;;;;;;1.80;1.20;;;;;;;;;;5030320;28;20447;-88
2022/01/20 03:04:47;;;;;;;0.80;0.67;;;;;;;;;;5030164;28;20472;-90
2022/01/20 03:07:14;;;;;;;1.20;1.10;;;;;;;;;;5033308;28;20448;-87
2022/01/20 03:09:42;;;;;;;3.50;1.17;;;;;;;;;;5030245;28;20448;-89
2022/01/20 03:12:10;;;;;;;1.33;1.00;;;2.30;99.90;;;;;;5033109;28;20503;-88
2022/01/20 03:14:38;;;;;;;1.13;0.90;;;;;;;;;;5032118;28;20465;-88
2022/01/20 03:17:05;;;;;;;1.00;0.90;;;;;;;;;;5029703;28;20947;-89
2022/01/20 03:19:33;;;;;;;2.10;0.97;;;;;;;;;;5033148;28;20802;-88
2022/01/20 03:22:00;;;;;;;1.50;1.40;;;;;;;;;;5030136;28;20834;-88
2022/01/20 03:24:27;;;;;;;1.23;0.73;;;;;;;;;;5033126;28;20459;-87
2022/01/20 03:26:54;;;;;;;1.33;1.23;;;;;;;;;;5032959;28;20448;-89
2022/01/20 03:29:22;;;;;;;0.73;0.73;;;2.30;99.90;;;;;;5031862;28;20475;-88
2022/01/20 03:31:49;;;;;;;1.10;1.00;;;;;;;;;;5032996;28;20495;-88
2022/01/20 03:34:16;;;;;;;1.60;1.20;;;;;;;;;;5033240;28;20471;-88
2022/01/20 03:36:43;;;;;;;1.80;1.37;;;;;;;;;;5033035;28;20448;-88
2022/01/20 03:39:10;;;;;;;0.80;0.70;;;;;;;;;;5032979;28;20444;-89
2022/01/20 03:41:37;;;;;;;1.93;1.37;;;;;;;;;;5032837;28;20448;-89
2022/01/20 03:44:05;;;;;;;2.57;1.23;;;;;;;;;;5032539;28;20781;-89
2022/01/20 03:46:33;;;;;;;1.60;1.47;;;2.40;99.90;;;;;;5030543;28;20448;-89
2022/01/20 03:49:09;;;;;;;1.13;1.00;;;;;;;;;;5029737;28;20811;-89
2022/01/20 03:51:36;;;;;;;1.43;1.23;;;;;;;;;;5032680;28;20479;-91
2022/01/20 03:54:04;;;;;;;1.60;0.80;;;2.50;99.90;;;;;;5032723;28;20456;-90
2022/01/20 03:56:32;;;;;;;1.10;0.93;;;;;;;;;;5032756;28;20453;-89
2022/01/20 03:58:59;;;;;;;2.23;1.00;;;;;;;;;;5032713;28;20466;-89
2022/01/20 04:01:26;;;;;;;1.90;1.63;;;;;;;;;;5031902;28;20523;-89
2022/01/20 04:03:54;;;;;;;3.00;1.80;;;2.50;99.90;;;;;;5031638;28;20468;-89
2022/01/20 04:06:23;;;;;;;1.53;1.20;;;;;;;;;;5032445;28;20462;-89
2022/01/20 04:08:51;;;;;;;2.00;1.60;;;;;;;;;;5033269;28;20459;-90
2022/01/20 04:11:19;;;;;;;1.70;1.60;;;2.60;99.90;;;;;;5036431;28;20518;-90
2022/01/20 04:13:46;;;;;;;2.03;1.80;;;;;;;;;;5033449;28;20447;-88
2022/01/20 04:16:19;;;;;;;1.93;1.30;;;2.70;99.90;;;;;;5035266;28;20451;-89
2022/01/20 04:18:53;;;;;;;2.67;2.03;;;2.60;99.90;;;;;;5036674;28;20448;-89
2022/01/20 04:21:24;;;;;;;1.80;1.60;;;3.20;99.90;;;;;;5016500;28;20452;-89
2022/01/20 04:23:51;;;;;;;1.40;1.30;;;;;;;;;;5011069;28;20452;-89
2022/01/20 04:26:19;;;;;;;2.23;0.87;;;;;;;;;;5013599;28;20472;-88
2022/01/20 04:28:46;;;;;;;1.63;1.40;;;;;;;;;;5016362;28;20820;-88
2022/01/20 04:31:13;;;;;;;1.13;1.03;;;;;;;;;;5012499;28;20476;-88
2022/01/20 04:33:41;;;;;;;1.53;1.43;;;;;;;;;;5015969;28;20449;-89
2022/01/20 04:36:08;;;;;;;5.00;1.73;;;;;;;;;;5016255;28;20463;-88
2022/01/20 04:38:36;;;;;;;2.00;1.27;;;2.60;99.90;;;;;;5016120;28;20452;-89
2022/01/20 04:41:04;;;;;;;6.40;2.00;;;;;;;;;;5016242;28;20452;-88
2022/01/20 04:43:31;;;;;;;2.90;1.90;;;;;;;;;;5013341;28;20464;-88
2022/01/20 04:46:04;;;;;;;2.90;1.87;;;;;;;;;;5012021;28;20437;-88
2022/01/20 04:48:45;;;;;;;2.73;1.90;;;;;;;;;;5015847;28;20476;-89
2022/01/20 04:57:16;;;;;;;1.10;1.00;;;;;;;;;;5015923;28;20440;-88
2022/01/20 04:59:43;;;;;;;1.70;1.53;;;;;;;;;;5012961;28;20464;-88
2022/01/20 05:02:10;;;;;;;2.80;1.70;;;;;;;;;;5015754;28;20457;-90
2022/01/20 05:04:38;;;;;;;2.03;1.63;;;;;;;;;;5012828;28;20460;-89
2022/01/20 05:07:06;;;;;;;3.23;2.33;;;;;;;;;;5015571;28;20453;-88
2022/01/20 05:09:35;;;;;;;2.43;1.90;;;2.40;99.90;;;;;;5015659;28;20952;-89
2022/01/20 05:12:06;;;;;;;3.27;2.40;;;;;;;;;;5015522;28;20490;-89
2022/01/20 05:14:33;;;;;;;1.67;1.40;;;;;;;;;;5013694;28;20503;-87
2022/01/20 05:17:00;;;;;;;2.40;1.83;;;;;;;;;;5015326;28;20457;-88
2022/01/20 05:19:29;;;;;;;2.20;1.67;;;2.40;99.90;;;;;;5015397;28;20456;-88
2022/01/20 05:21:56;;;;;;;2.30;0.73;;;;;;;;;;5015380;28;20452;-88
2022/01/20 05:24:23;;;;;;;4.10;2.37;;;;;;;;;;5015208;28;20452;-87
2022/01/20 05:26:52;;;;;;;2.40;2.00;;;2.40;99.90;;;;;;5012434;28;20452;-87
2022/01/20 05:29:20;;;;;;;1.00;0.80;;;;;;;;;;5014097;28;21118;-89
2022/01/20 05:31:47;;;;;;;2.43;2.10;;;;;;;;;;5015002;28;21000;-88
2022/01/20 05:34:15;;;;;;;2.47;1.83;;;;;;;;;;5014945;28;20455;-88
2022/01/20 05:36:42;;;;;;;4.20;1.73;;;;;;;;;;5014976;28;20464;-90
2022/01/20 05:39:09;;;;;;;9.27;2.67;;;;;;;;;;5015086;28;20503;-88
2022/01/20 05:41:36;;;;;;;4.50;2.40;;;;;;;;;;5014840;28;20452;-88
2022/01/20 05:44:06;;;;;;;3.87;1.97;;;;;;;;;;5014909;28;21131;-90
2022/01/20 05:46:38;;;;;;;2.50;1.63;;;;;;;;;;5014198;28;20444;-88
2022/01/20 05:49:08;;;;;;;4.60;1.93;;;;;;;;;;4991951;28;20958;-88
2022/01/20 05:51:36;;;;;;;2.03;1.67;;;;;;;;;;4995010;28;20490;-89
2022/01/20 05:54:03;;;;;;;3.97;1.63;;;;;;;;;;4992348;28;20454;-88
2022/01/20 05:56:31;;;;;;;7.60;1.97;;;;;;;;;;4995148;28;20460;-89
2022/01/20 05:58:59;;;;;;;2.80;1.80;;;;;;;;;;4995073;28;20453;-90
2022/01/20 06:01:28;;;;;;;3.23;2.13;;;2.40;99.90;;;;;;4993450;28;20523;-89
2022/01/20 06:03:56;;;;;;;2.10;1.80;;;;;;;;;;4995521;28;21014;-89
2022/01/20 06:06:23;;;;;;;3.03;1.80;;;;;;;;;;4995239;28;20457;-88
2022/01/20 06:08:50;;;;;;;1.67;1.10;;;;;;;;;;4992872;28;20446;-88
2022/01/20 06:11:17;;;;;;;0.93;0.63;;;;;;;;;;4995248;28;20461;-88
2022/01/20 06:13:45;;;;;;;1.33;1.20;;;;;;;;;;4994743;28;20521;-88
2022/01/20 06:16:12;;;;;;;2.63;1.10;;;;;;;;;;4990836;28;20454;-90
2022/01/20 06:18:40;;;;;;;0.90;0.73;;;2.40;99.90;;;;;;4995128;28;20437;-88
2022/01/20 06:21:07;;;;;;;3.77;1.97;;;;;;;;;;4994643;28;20442;-88
2022/01/20 06:23:35;;;;;;;2.70;1.90;;;2.30;99.90;;;;;;4994584;28;20457;-88
2022/01/20 06:26:05;;;;;;;1.63;1.03;;;;;;;;;;4994427;28;20492;-88
2022/01/20 06:28:32;;;;;;;1.00;0.83;;;;;;;;;;4994426;28;20508;-88
2022/01/20 06:30:59;;;;;;;1.80;0.67;;;;;;;;;;4993911;28;20450;-90
2022/01/20 06:33:27;;;;;;;1.23;0.90;;;;;;;;;;4994471;28;20496;-87
2022/01/20 06:35:55;;;;;;;4.37;2.20;;;2.20;99.90;;;;;;4994457;28;20461;-89
2022/01/20 06:38:22;;;;;;;1.27;1.17;;;;;;;;;;4994442;28;20454;-87
2022/01/20 06:40:49;;;;;;;1.40;1.20;;;;;;;;;;4994107;28;20457;-85
2022/01/20 06:43:16;;;;;;;3.37;1.63;;;;;;;;;;4994465;28;20448;-89
2022/01/20 06:45:43;;;;;;;1.70;1.30;;;;;;;;;;4993389;28;20445;-91
2022/01/20 06:48:10;;;;;;;2.10;1.63;;;;;;;;;;5006700;28;20480;-89
2022/01/20 06:50:37;;;;;;;2.33;1.80;;;;;;;;;;5013662;28;20957;-90
2022/01/20 06:53:06;;;;;;;3.10;1.37;;;;;;;;;;5013370;28;20501;-88
2022/01/20 06:55:34;;;;;;;2.97;1.37;;;;;;;;;;5013475;28;20441;-87
2022/01/20 06:58:01;;;;;;;4.83;2.07;;;;;;;;;;5013461;28;20453;-87
2022/01/20 07:00:28;;;;;;;2.50;1.80;;;;;;;;;;5012513;28;20453;-88
2022/01/20 07:02:55;;;;;;;1.93;1.53;;;;;;;;;;5013386;28;20465;-86
2022/01/20 07:05:24;;;;;;;3.67;1.67;;;2.10;99.90;;;;;;5013397;28;20457;-88
2022/01/20 07:07:51;;;;;;;2.30;1.13;;;;;;;;;;5013554;28;20457;-86
2022/01/20 07:10:21;;;;;;;3.87;1.60;;;2.10;99.90;;;;;;5013209;28;20449;-87
2022/01/20 07:12:48;;;;;;;2.00;1.53;;;;;;;;;;5013285;28;20496;-87
2022/01/20 07:15:16;;;;;;;5.53;1.73;;;2.00;99.90;;;;;;5012175;28;20482;-86
2022/01/20 07:17:44;;;;;;;2.83;1.80;;;2.00;99.90;;;;;;5013299;28;20445;-87
2022/01/20 07:20:12;;;;;;;4.80;1.83;;;2.20;99.90;;;;;;5013207;28;20449;-87
2022/01/20 07:22:39;;;;;;;6.07;2.30;;;;;;;;;;5013153;28;20452;-87
2022/01/20 07:25:06;;;;;;;3.00;2.07;;;;;;;;;;5013264;28;20445;-88
2022/01/20 07:27:34;;;;;;;7.53;2.20;;;2.00;99.90;;;;;;5013327;28;20452;-88
2022/01/20 07:30:02;;;;;;;1.90;1.63;;;;;;;;;;5011936;28;20478;-87
2022/01/20 07:32:29;;;;;;;6.00;2.00;;;;;;;;;;5013048;28;20492;-88
2022/01/20 07:34:56;;;;;;;3.87;2.23;;;;;;;;;;5013195;28;20449;-88
2022/01/20 07:37:23;;;;;;;3.97;1.50;;;;;;;;;;5012997;28;20445;-88
2022/01/20 07:39:50;;;;;;;1.67;1.17;;;;;;;;;;5016806;28;20441;-87
2022/01/20 07:42:17;;;;;;;3.07;1.90;;;;;;;;;;5017187;28;20456;-87
2022/01/20 07:44:46;;;;;;;6.23;2.23;;;1.90;99.90;;;;;;5016029;28;20448;-87
2022/01/20 07:47:13;;;;;;;5.00;2.43;;;;;;;;;;5016933;28;20480;-88
2022/01/20 07:49:40;;;;;;;11.87;2.93;;;;;;;;;;5017086;28;20457;-88
2022/01/20 07:52:07;;;;;;;5.77;1.33;;;1.90;99.90;;;;;;5016882;28;20831;-88
2022/01/20 07:54:34;;;;;;;3.97;2.63;;;;;;;;;;5016959;28;20449;-87
2022/01/20 07:57:02;;;;;;;2.00;1.50;;;;;;;;;;5016902;28;20801;-88
2022/01/20 07:59:29;;;;;;;4.67;2.00;;;;;;;;;;5033543;28;20959;-87
2022/01/20 08:01:57;;;;;;;3.20;1.73;;;2.30;99.90;;;;;;5033681;28;20483;-90
2022/01/20 08:04:24;;;;;;;11.63;2.57;;;;;;;;;;5036368;28;20455;-86
2022/01/20 08:06:51;;;;;;;7.20;3.40;;;;;;;;;;5033537;28;20455;-87
2022/01/20 08:09:19;;;;;;;4.10;2.63;;;;;;;;;;5036424;28;20458;-88
2022/01/20 08:11:46;;;;;;;5.83;2.30;;;;;;;;;;5034603;28;20444;-89
2022/01/20 08:14:13;;;;;;;3.40;2.07;;;;;;;;;;5035088;28;20499;-87
2022/01/20 08:16:40;;;;;;;5.87;3.20;;;;;;;;;;5036157;28;20456;-87
2022/01/20 08:19:08;;;;;;;8.90;2.70;;;2.40;99.90;;;;;;5036164;28;20452;-92
2022/01/20 08:21:35;;;;;;;5.30;2.60;;;;;;;;;;5033353;28;20448;-87
2022/01/20 08:24:02;;;;;;;4.10;1.80;;;;;;;;;;5036144;28;20839;-90
2022/01/20 08:26:30;;;;;;;1.03;0.73;;;;;;;;;;5036207;28;20448;-89
2022/01/20 08:28:57;;;;;;;4.47;2.63;;;;;;;;;;5036212;28;20452;-88
2022/01/20 08:31:25;;;;;;;3.50;2.07;;;2.80;99.90;;;;;;5035193;28;20455;-89
2022/01/20 08:33:52;;;;;;;3.57;1.40;;;;;;;;;;5030133;28;20498;-88
2022/01/20 08:36:20;;;;;;;7.70;2.77;;;2.70;99.90;;;;;;5035956;28;20455;-89
2022/01/20 08:38:47;;;;;;;4.40;2.07;;;;;;;;;;5036029;28;20466;-88
2022/01/20 08:41:14;;;;;;;7.00;2.80;;;;;;;;;;5035820;28;20854;-88
2022/01/20 08:43:42;;;;;;;4.90;1.97;;;;;;;;;;5034219;28;20966;-88
2022/01/20 08:46:11;;;;;;;8.37;2.80;;;2.50;99.90;;;;;;5034362;28;20452;-87
2022/01/20 08:48:40;;;;;;;2.07;1.60;;;2.50;99.90;;;;;;5031624;28;20494;-86
2022/01/20 08:51:08;;;;;;;4.03;1.70;;;2.50;99.90;;;;;;5034274;28;20795;-84
2022/01/20 08:53:36;;;;;;;2.20;1.30;;;2.40;99.90;;;;;;5035439;28;20502;-86
2022/01/20 08:56:04;;;;;;;5.97;2.73;;;2.50;99.90;;;;;;5032452;28;20452;-87
2022/01/20 08:58:31;;;;;;;2.50;1.43;;;;;;;;;;5035523;28;20464;-87
2022/01/20 09:01:00;;;;;;;4.23;2.20;;;;;;;;;;5034472;28;20475;-88
2022/01/20 09:03:27;;;;;;;3.20;2.33;;;;;;;;;;5037103;28;20459;-89
2022/01/20 09:05:55;;;;;;;4.17;2.37;;;;;;;;;;5034033;28;20463;-88
2022/01/20 09:08:22;;;;;;;7.80;3.63;;;;;;;;;;5036739;28;20536;-89
2022/01/20 09:10:55;;;;;;;4.43;1.50;;;3.30;99.90;;;;;;5037854;28;20447;-88
2022/01/20 09:16:07;;;;;;;9.20;2.80;;;;;;;;;;5034891;28;20482;-90
2022/01/20 09:18:34;;;;;;;4.53;1.50;;;;;;;;;;5035505;28;20452;-88
2022/01/20 09:21:01;;;;;;;4.20;1.50;;;;;;;;;;5032576;28;20498;-89
2022/01/20 09:23:28;;;;;;;4.50;2.30;;;;;;;;;;5036891;28;20966;-91
2022/01/20 09:25:57;;;;;;;3.33;2.10;;;3.10;99.90;;;;;;5035583;28;20452;-88
2022/01/20 09:28:24;;;;;;;4.43;2.10;;;;;;;;;;5033196;28;20451;-86
2022/01/20 09:30:56;;;;;;;6.30;2.40;;;;;;;;;;5035440;28;20467;-90
2022/01/20 09:33:27;;;;;;;5.40;2.50;;;;;;;;;;5037726;28;20494;-90
2022/01/20 09:35:54;;;;;;;3.47;1.93;;;;;;;;;;5035201;28;20538;-89
2022/01/20 09:38:22;;;;;;;1.90;1.50;;;;;;;;;;5036578;28;20435;-90
2022/01/20 09:40:49;;;;;;;4.10;1.50;;;;;;;;;;5035235;28;20444;-88
2022/01/20 09:43:18;;;;;;;4.40;1.80;;;3.30;99.90;;;;;;5036396;28;20452;-91
2022/01/20 09:45:51;;;;;;;4.20;1.73;;;3.40;99.90;;;;;;5035627;28;20448;-90
2022/01/20 09:48:19;;;;;;;5.53;2.30;;;;;;;;;;5035774;28;20495;-89
2022/01/20 09:50:46;;;;;;;6.17;2.70;;;;;;;;;;5034860;28;20452;-88
2022/01/20 09:53:14;;;;;;;5.80;2.20;;;;;;;;;;5036279;28;20516;-88
2022/01/20 09:55:41;;;;;;;9.90;3.00;;;;;;;;;;5035653;28;20452;-89
2022/01/20 09:58:08;;;;;;;5.50;2.40;;;;;;;;;;5035812;28;20460;-88
2022/01/20 10:00:38;;;;;;;7.30;2.10;;;3.90;99.90;;;;;;5033013;28;20478;-88
2022/01/20 10:03:10;;;;;;;9.97;3.23;;;3.50;99.90;;;;;;5031567;28;20521;-89
2022/01/20 10:05:38;;;;;;;12.00;2.90;;;3.80;99.90;;;;;;5030971;28;20451;-88
2022/01/20 10:08:08;;;;;;;7.57;2.27;;;3.80;99.90;;;;;;5034673;28;20920;-88
2022/01/20 10:10:45;;;;;;;6.30;3.17;;;4.10;99.90;;;;;;5034039;28;20543;-86
2022/01/20 10:13:13;;;;;;;15.60;3.50;;;4.00;99.90;;;;;;5034009;28;20479;-87
2022/01/20 10:15:41;;;;;;;11.00;3.10;;;3.90;99.90;;;;;;5028944;28;20927;-88
2022/01/20 10:18:10;;;;;;;6.90;2.30;;;3.80;99.90;;;;;;5034120;28;20470;-88
2022/01/20 10:20:37;;;;;;;3.80;2.40;;;3.70;99.90;;;;;;5033818;28;20448;-88
2022/01/20 10:23:04;;;;;;;4.40;3.17;;;;;;;;;;5031180;28;20468;-89
2022/01/20 10:25:35;;;;;;;6.53;3.23;;;4.40;99.90;;;;;;5030776;28;20484;-88
2022/01/20 10:28:02;;;;;;;4.50;2.87;;;;;;;;;;5033454;28;20513;-88
2022/01/20 10:30:33;;;;;;;11.03;3.13;;;3.80;99.90;;;;;;5029600;28;20459;-87
2022/01/20 10:33:02;;;;;;;4.47;1.93;;;3.90;99.90;;;;;;5031124;28;20479;-87
2022/01/20 10:35:32;;;;;;;6.10;2.40;;;3.90;99.90;;;;;;5033706;28;20443;-89
2022/01/20 10:38:09;;;;;;;5.93;2.30;;;3.90;99.90;;;;;;5033670;28;20944;-87
2022/01/20 10:40:46;;;;;;;7.70;3.73;;;4.00;99.90;;;;;;5033384;28;20459;-87
2022/01/20 10:43:20;;;;;;;7.50;2.53;;;4.20;99.90;;;;;;5030669;28;20451;-87
2022/01/20 10:45:47;;;;;;;6.73;2.97;;;;;;;;;;5032214;28;20943;-88
2022/01/20 10:48:20;;;;;;;10.60;3.73;;;3.90;99.90;;;;;;5033374;28;20479;-86
2022/01/20 10:50:47;;;;;;;2.37;1.33;;;;;;;;;;5028366;28;20447;-87
2022/01/20 10:53:18;;;;;;;6.37;2.20;;;4.30;99.90;;;;;;5033225;28;20488;-87
2022/01/20 10:55:46;;;;;;;5.50;2.10;;;;;;;;;;5034209;28;20858;-87
2022/01/20 10:58:15;;;;;;;5.40;3.03;;;3.90;99.90;;;;;;5033414;28;20452;-87
2022/01/20 11:00:44;;;;;;;5.93;2.50;;;4.00;99.90;;;;;;5032256;28;20487;-89
2022/01/20 11:03:11;;;;;;;15.03;3.80;;;;;;;;;;5033322;28;20467;-88
2022/01/20 11:05:41;;;;;;;8.43;2.93;;;3.90;99.90;;;;;;5033532;28;20808;-89
2022/01/20 11:08:08;;;;;;;5.70;2.27;;;;;;;;;;5030139;28;20880;-88
2022/01/20 11:10:37;;;;;;;5.80;2.60;;;;;;;;;;5033152;28;20459;-87
2022/01/20 11:13:04;;;;;;;6.40;3.53;;;;;;;;;;5029292;28;20779;-87
2022/01/20 11:15:31;;;;;;;3.17;2.60;;;;;;;;;;5032151;28;20443;-87
2022/01/20 11:17:59;;;;;;;11.43;3.07;;;;;;;;;;5032977;28;20452;-88
2022/01/20 11:20:29;;;;;;;3.00;1.80;;;;;;;;;;5034230;28;20472;-88
2022/01/20 11:23:00;;;;;;;4.57;1.80;;;3.40;99.90;;;;;;5033283;28;20947;-88
2022/01/20 11:25:29;;;;;;;3.87;2.27;;;3.50;99.90;;;;;;5030370;28;20452;-90
2022/01/20 11:28:03;;;;;;;3.50;1.93;;;3.50;99.90;;;;;;5031535;28;20463;-87
2022/01/20 11:30:33;;;;;;;7.63;3.20;;;;;;;;;;5031385;28;20454;-86
2022/01/20 11:33:05;;;;;;;9.67;2.90;;;2.50;99.90;;;;;;5032527;28;20454;-88
2022/01/20 11:35:44;;;;;;;3.33;2.40;;;4.00;99.90;;;;;;5032833;28;20814;-87
2022/01/20 11:38:14;;;;;;;7.47;2.13;;;3.40;99.90;;;;;;5032618;28;20448;-88
2022/01/20 11:40:53;;;;;;;4.77;2.87;;;3.70;99.90;;;;;;5029505;28;20578;-87
2022/01/20 11:43:33;;;;;;;12.30;1.77;;;3.70;99.90;;;;;;5032790;28;20458;-89
2022/01/20 11:46:13;;;;;;;7.90;1.60;;;3.80;99.90;;;;;;5031737;28;20818;-89
2022/01/20 11:48:58;;;;;;;4.03;1.63;;;3.80;99.90;;;;;;5032474;28;20475;-89
2022/01/20 11:51:25;;;;;;;6.93;2.90;;;4.30;99.90;;;;;;5029409;28;20465;-88
2022/01/20 11:53:58;;;;;;;7.07;1.90;;;4.40;99.90;;;;;;5027031;28;20502;-87
2022/01/20 11:56:33;;;;;;;13.53;1.57;;;4.20;99.90;;;;;;5032470;28;20448;-87
2022/01/20 11:59:00;;;;;;;3.20;2.53;;;;;;;;;;5028253;28;20501;-87
2022/01/20 12:01:29;;;;;;;2.90;1.17;;;;;;;;;;5031129;28;20460;-87
2022/01/20 12:03:57;;;;;;;3.43;1.60;;;;;;;;;;5032283;28;20580;-89
2022/01/20 12:06:26;;;;;;;6.73;1.60;;;;;;;;;;5032231;28;20539;-87
2022/01/20 12:08:54;;;;;;;4.67;2.00;;;4.80;99.90;;;;;;5032149;28;20449;-87
2022/01/20 12:11:33;;;;;;;4.00;2.17;;;4.50;99.90;;;;;;5032302;28;20509;-88
2022/01/20 12:14:01;;;;;;;5.00;1.60;;;;;;;;;;5030823;28;20498;-88
2022/01/20 12:16:28;;;;;;;4.77;1.97;;;;;;;;;;5030965;28;20451;-88
2022/01/20 12:18:56;;;;;;;1.03;0.80;;;4.40;99.90;;;;;;5032023;28;20456;-88
2022/01/20 12:21:25;;;;;;;1.70;1.37;;;4.20;99.90;;;;;;5032010;28;20463;-87
2022/01/20 12:23:55;;;;;;;5.60;2.20;;;4.20;99.90;;;;;;5032656;28;20460;-88
2022/01/20 12:26:24;;;;;;;3.03;2.40;;;4.10;99.90;;;;;;5036527;28;20452;-87
2022/01/20 12:29:40;;;;;;;2.40;1.07;;;3.90;99.90;;;;;;5041886;28;20450;-95
2022/01/20 12:32:12;;;;;;;3.10;1.53;;;3.80;99.90;;;;;;5038525;28;20452;-88
2022/01/20 12:34:39;;;;;;;6.00;2.77;;;;;;;;;;5035729;28;20483;-88
2022/01/20 12:37:06;;;;;;;5.37;1.53;;;4.00;99.90;;;;;;5035954;28;20464;-88
2022/01/20 12:39:35;;;;;;;3.33;2.40;;;3.20;99.90;;;;;;5035879;28;20459;-87
2022/01/20 12:42:06;;;;;;;3.77;2.20;;;4.00;99.90;;;;;;5035816;28;20819;-89
2022/01/20 12:44:46;;;;;;;4.43;3.10;;;3.60;99.90;;;;;;5034667;28;20444;-88
2022/01/20 12:47:13;;;;;;;1.67;1.10;;;;;;;;;;5032665;28;20479;-89
2022/01/20 12:49:41;;;;;;;2.07;1.53;;;;;;;;;;5035965;28;20811;-91
2022/01/20 12:52:09;;;;;;;1.20;1.00;;;2.90;99.90;;;;;;5035935;28;20448;-89
2022/01/20 12:54:36;;;;;;;1.97;1.30;;;2.40;99.90;;;;;;5036200;28;20487;-89
2022/01/20 12:57:07;;;;;;;2.00;1.30;;;2.20;99.90;;;;;;5032892;28;20538;-88
2022/01/20 12:59:35;;;;;;;1.90;1.30;;;2.00;99.90;;;;;;5037215;28;20614;-88
2022/01/20 13:02:06;;;;;;;1.93;1.07;;;1.80;99.90;;;;;;5036494;28;20509;-90
2022/01/20 13:04:35;;;;;;;9.30;2.03;;;1.80;99.90;;;;;;5029006;28;20471;-88
2022/01/20 13:07:03;;;;;;;1.90;1.30;;;1.70;99.90;;;;;;5037820;28;20448;-91
2022/01/20 13:09:44;;;;;;;3.00;1.47;;;1.70;99.90;;;;;;5034293;28;20555;-94
2022/01/20 13:12:14;;;;;;;6.83;1.90;;;1.60;99.90;;;;;;5039689;28;20942;-88
2022/01/20 13:14:43;;;;;;;4.70;1.37;;;1.50;99.90;;;;;;5033830;28;20494;-86
2022/01/20 13:17:13;;;;;;;1.97;1.00;;;1.40;99.90;;;;;;5033361;28;20444;-91
2022/01/20 13:19:43;;;;;;;3.77;1.40;;;1.40;99.90;;;;;;5037649;28;20451;-89
2022/01/20 13:22:22;;;;;;;2.93;1.50;;;1.40;99.90;;;;;;5033187;28;20535;-88
2022/01/20 13:24:49;;;;;;;4.60;1.40;;;;;;;;;;5035126;28;20447;-88
2022/01/20 13:27:18;;;;;;;3.33;1.30;;;1.40;99.90;;;;;;5034899;28;20451;-89
2022/01/20 13:29:47;;;;;;;4.70;2.53;;;1.40;99.90;;;;;;5033761;28;20447;-88
2022/01/20 13:32:15;;;;;;;5.33;1.70;;;1.50;99.90;;;;;;5030384;28;20452;-88
2022/01/20 13:35:00;;;;;;;1.63;1.43;;;1.50;99.90;;;;;;5031441;28;20506;-88
2022/01/20 13:37:31;;;;;;;4.30;1.33;;;1.60;99.90;;;;;;5032158;28;20467;-87
2022/01/20 13:40:00;;;;;;;2.70;1.70;;;;;;;;;;5034440;28;20447;-88
2022/01/20 13:42:38;;;;;;;14.83;3.07;;;1.60;99.90;;;;;;5034359;28;20535;-88
2022/01/20 13:45:13;;;;;;;2.53;1.10;;;1.60;99.90;;;;;;5033163;28;20452;-89
2022/01/20 13:47:53;;;;;;;4.57;1.30;;;2.30;99.90;;;;;;5034041;28;20490;-88
2022/01/20 13:50:23;;;;;;;1.30;0.70;;;1.50;99.90;;;;;;5034596;28;20466;-88
2022/01/20 13:52:51;;;;;;;4.93;1.70;;;;;;;;;;5034442;28;20448;-87
2022/01/20 13:55:20;;;;;;;2.47;1.47;;;1.50;99.90;;;;;;5034497;28;20502;-88
2022/01/20 13:57:48;;;;;;;6.07;1.90;;;1.60;99.90;;;;;;5034297;28;20452;-87
2022/01/20 14:00:16;;;;;;;3.53;1.20;;;1.60;99.90;;;;;;5033180;28;20479;-87
2022/01/20 14:02:47;;;;;;;7.63;1.83;;;1.60;99.90;;;;;;5029149;28;20865;-87
2022/01/20 14:05:14;;;;;;;4.10;2.00;;;;;;;;;;5031132;28;20459;-88
2022/01/20 14:07:42;;;;;;;6.00;2.80;;;;;;;;;;5034172;28;20475;-88
2022/01/20 14:10:09;;;;;;;1.93;1.10;;;;;;;;;;5034350;28;20448;-87
2022/01/20 14:12:36;;;;;;;4.33;1.77;;;;;;;;;;5034126;28;20448;-88
2022/01/20 14:15:05;;;;;;;3.23;1.80;;;1.50;99.90;;;;;;5032812;28;21018;-86
2022/01/20 14:17:36;;;;;;;8.63;2.50;;;;;;;;;;5033773;28;20452;-89
2022/01/20 14:20:10;;;;;;;10.80;2.40;;;1.60;99.90;;;;;;5034056;28;20484;-89
2022/01/20 14:22:37;;;;;;;5.23;2.73;;;;;;;;;;5022505;28;20480;-86
2022/01/20 14:25:06;;;;;;;8.50;3.30;;;1.60;99.90;;;;;;5011202;28;20852;-86
2022/01/20 14:27:33;;;;;;;2.83;1.47;;;;;;;;;;5014214;28;20452;-87
2022/01/20 14:30:01;;;;;;;3.67;1.13;;;1.50;99.90;;;;;;5012736;28;20456;-87
2022/01/20 14:32:29;;;;;;;4.80;2.30;;;1.60;99.90;;;;;;5016267;28;20448;-87
2022/01/20 14:34:56;;;;;;;9.80;2.33;;;;;;;;;;5013905;28;20492;-91
2022/01/20 14:37:23;;;;;;;5.27;2.53;;;;;;;;;;5013761;28;20475;-85
2022/01/20 14:39:50;;;;;;;5.63;3.13;;;;;;;;;;5013496;28;20456;-86
2022/01/20 14:42:18;;;;;;;5.33;2.80;;;;;;;;;;5012749;28;20451;-87
2022/01/20 14:44:47;;;;;;;9.53;3.50;;;1.70;99.90;;;;;;5012227;28;20449;-86
2022/01/20 14:47:15;;;;;;;4.57;2.13;;;1.70;99.90;;;;;;5012144;28;20481;-88
2022/01/20 14:49:43;;;;;;;7.40;2.80;;;1.70;99.90;;;;;;5013022;28;20952;-88
2022/01/20 14:52:10;;;;;;;14.63;3.17;;;;;;;;;;5013840;28;20445;-87
2022/01/20 14:54:37;;;;;;;9.80;2.43;;;;;;;;;;5013830;28;20503;-88
2022/01/20 14:57:05;;;;;;;5.53;2.43;;;;;;;;;;5014437;28;20457;-87